Time;durP1;ratioP1;P1;durP2;ratioP2;P2;SDS_P1;SDS_P2;PMS_P1;PMS_P2;Temp;Humidity;BMP_temperature;BMP_pressure;BME280_temperature;BME280_humidity;BME280_pressure;Samples;Min_cycle;Max_cycle;Signal;HPM_P1;HPM_P2
2021/07/30 00:01:12;;;;;;;7.38;4.22;;;21.60;86.20;;;;;;5073576;28;20040;-62
2021/07/30 00:03:38;;;;;;;6.28;3.90;;;21.60;86.20;;;;;;5073375;28;20033;-62
2021/07/30 00:06:03;;;;;;;6.63;3.80;;;21.60;85.90;;;;;;5073391;28;20032;-62
2021/07/30 00:08:29;;;;;;;5.22;3.28;;;21.60;85.90;;;;;;5073622;28;20025;-62
2021/07/30 00:10:55;;;;;;;4.90;3.20;;;21.60;85.90;;;;;;5073305;28;20031;-61
2021/07/30 00:13:21;;;;;;;4.75;3.05;;;21.60;86.10;;;;;;5073347;28;20483;-62
2021/07/30 00:15:47;;;;;;;5.88;3.47;;;21.60;86.20;;;;;;5073564;28;20041;-62
2021/07/30 00:18:13;;;;;;;4.80;3.08;;;21.60;86.50;;;;;;5073406;28;20033;-61
2021/07/30 00:20:38;;;;;;;5.22;3.03;;;21.60;86.70;;;;;;5073256;28;20025;-62
2021/07/30 00:23:04;;;;;;;5.03;3.10;;;21.60;86.60;;;;;;5073152;28;20024;-61
2021/07/30 00:25:30;;;;;;;5.05;2.83;;;21.70;86.60;;;;;;5072948;28;20025;-62
2021/07/30 00:27:56;;;;;;;4.70;2.65;;;21.70;86.60;;;;;;5073229;28;20017;-62
2021/07/30 00:30:21;;;;;;;5.38;2.80;;;21.70;86.70;;;;;;5073360;28;20108;-62
2021/07/30 00:32:47;;;;;;;5.40;3.45;;;21.70;86.70;;;;;;5073080;28;20098;-63
2021/07/30 00:35:13;;;;;;;4.78;2.80;;;21.70;86.80;;;;;;5072930;28;20024;-62
2021/07/30 00:37:39;;;;;;;5.40;3.17;;;21.70;86.70;;;;;;5072961;28;20387;-62
2021/07/30 00:40:05;;;;;;;5.28;3.03;;;21.70;86.80;;;;;;5073038;28;20105;-62
2021/07/30 00:42:32;;;;;;;5.40;3.13;;;21.80;87.10;;;;;;5072736;28;20162;-62
2021/07/30 00:45:02;;;;;;;5.32;3.20;;;21.80;87.30;;;;;;5072634;28;20111;-62
2021/07/30 00:47:29;;;;;;;5.05;3.00;;;21.80;87.20;;;;;;5072700;28;20030;-62
2021/07/30 00:49:58;;;;;;;4.60;2.80;;;21.80;87.30;;;;;;5054893;28;20490;-62
2021/07/30 00:52:26;;;;;;;5.55;3.03;;;21.90;87.20;;;;;;5072694;28;20418;-62
2021/07/30 00:54:54;;;;;;;6.20;4.20;;;21.90;87.20;;;;;;5072745;28;20379;-62
2021/07/30 00:57:23;;;;;;;6.25;3.83;;;21.90;86.70;;;;;;5072389;28;20399;-62
2021/07/30 00:59:50;;;;;;;6.00;4.00;;;21.80;86.20;;;;;;5072537;28;20025;-61
2021/07/30 01:02:20;;;;;;;6.80;4.00;;;21.70;86.30;;;;;;5072426;28;20021;-61
2021/07/30 01:04:48;;;;;;;5.20;3.75;;;21.60;87.00;;;;;;5071078;28;20477;-62
2021/07/30 01:07:15;;;;;;;5.43;3.83;;;21.50;87.40;;;;;;5072235;28;20032;-62
2021/07/30 01:09:41;;;;;;;6.15;3.90;;;21.40;87.40;;;;;;5072277;28;20487;-62
2021/07/30 01:12:09;;;;;;;6.80;4.28;;;21.50;87.50;;;;;;5071238;28;20051;-62
2021/07/30 01:14:35;;;;;;;7.50;4.65;;;21.30;86.80;;;;;;5072264;28;20103;-62
2021/07/30 01:17:01;;;;;;;7.45;4.15;;;21.30;86.70;;;;;;5072472;28;20027;-62
2021/07/30 01:19:28;;;;;;;5.82;3.90;;;21.20;86.70;;;;;;5071971;28;20040;-62
2021/07/30 01:21:54;;;;;;;5.70;4.10;;;21.20;86.90;;;;;;5072002;28;20061;-61
2021/07/30 01:24:22;;;;;;;6.95;4.30;;;21.20;86.90;;;;;;5072007;28;20021;-62
2021/07/30 01:26:50;;;;;;;5.43;3.42;;;21.10;86.60;;;;;;5071900;28;20021;-62
2021/07/30 01:29:16;;;;;;;6.25;3.70;;;21.10;86.70;;;;;;5071839;28;20023;-62
2021/07/30 01:31:42;;;;;;;6.80;3.67;;;21.00;86.90;;;;;;5071788;28;20052;-62
2021/07/30 01:34:08;;;;;;;5.50;3.60;;;20.90;87.10;;;;;;5071780;28;20016;-62
2021/07/30 01:36:34;;;;;;;6.55;4.15;;;20.90;87.60;;;;;;5071913;28;20098;-62
2021/07/30 01:38:59;;;;;;;5.32;3.70;;;20.90;87.60;;;;;;5071950;28;20521;-62
2021/07/30 01:41:26;;;;;;;5.90;3.00;;;20.80;87.60;;;;;;5071816;28;20471;-62
2021/07/30 01:43:51;;;;;;;5.82;3.40;;;20.80;87.80;;;;;;5072050;28;20067;-62
2021/07/30 01:46:17;;;;;;;5.18;3.50;;;20.70;87.90;;;;;;5071858;28;20066;-62
2021/07/30 01:48:43;;;;;;;6.63;3.92;;;20.70;88.00;;;;;;5071608;28;20028;-62
2021/07/30 01:51:08;;;;;;;6.82;4.50;;;20.60;88.30;;;;;;5071510;28;20094;-62
2021/07/30 01:53:34;;;;;;;6.60;4.30;;;20.70;88.40;;;;;;5071576;28;20020;-62
2021/07/30 01:56:07;;;;;;;6.18;4.05;;;20.70;87.70;;;;;;5071651;28;20383;-63
2021/07/30 01:58:36;;;;;;;7.57;4.40;;;20.60;87.60;;;;;;5072205;28;20361;-62
2021/07/30 02:01:02;;;;;;;5.72;4.13;;;20.60;87.40;;;;;;5071356;28;20487;-61
2021/07/30 02:03:28;;;;;;;6.53;4.50;;;20.60;87.20;;;;;;5071259;28;20538;-61
2021/07/30 02:05:54;;;;;;;6.32;4.40;;;20.60;87.20;;;;;;5071721;28;20036;-61
2021/07/30 02:08:19;;;;;;;6.70;5.18;;;20.50;87.00;;;;;;5071481;28;20024;-61
2021/07/30 02:10:45;;;;;;;8.48;5.30;;;20.50;87.10;;;;;;5071472;28;20040;-62
2021/07/30 02:15:55;;;;;;;7.93;5.32;;;20.40;87.30;;;;;;5071482;28;20051;-61
2021/07/30 02:18:20;;;;;;;8.35;5.45;;;20.40;87.30;;;;;;5071326;28;20032;-61
2021/07/30 02:20:46;;;;;;;6.65;5.07;;;20.30;87.60;;;;;;5071430;28;20396;-62
2021/07/30 02:23:13;;;;;;;7.47;5.07;;;20.30;87.80;;;;;;5073630;28;20021;-63
2021/07/30 02:25:39;;;;;;;7.15;5.28;;;20.30;88.00;;;;;;5075503;28;20425;-62
2021/07/30 02:28:05;;;;;;;7.28;5.18;;;20.30;87.60;;;;;;5075324;28;20024;-62
2021/07/30 02:30:30;;;;;;;7.88;5.28;;;20.40;87.20;;;;;;5075238;28;20040;-62
2021/07/30 02:32:56;;;;;;;7.38;5.15;;;20.30;87.40;;;;;;5075230;28;20039;-62
2021/07/30 02:35:22;;;;;;;8.05;5.78;;;20.30;87.20;;;;;;5075216;28;20016;-62
2021/07/30 02:37:47;;;;;;;7.35;5.45;;;20.30;87.40;;;;;;5075234;28;20028;-62
2021/07/30 02:40:13;;;;;;;7.55;5.60;;;20.30;87.50;;;;;;5075213;28;20024;-62
2021/07/30 02:42:39;;;;;;;7.75;5.18;;;20.30;87.30;;;;;;5075562;28;20064;-62
2021/07/30 02:45:05;;;;;;;6.78;4.88;;;20.30;87.70;;;;;;5075053;28;20131;-62
2021/07/30 02:47:31;;;;;;;6.95;4.82;;;20.30;87.00;;;;;;5074933;28;20028;-62
2021/07/30 02:49:57;;;;;;;7.22;4.85;;;20.30;87.10;;;;;;5075195;28;20032;-62
2021/07/30 02:52:22;;;;;;;6.22;4.80;;;20.40;86.80;;;;;;5056853;28;20028;-62
2021/07/30 02:54:48;;;;;;;6.90;4.75;;;20.40;86.80;;;;;;5075192;28;20071;-62
2021/07/30 02:57:13;;;;;;;6.45;4.68;;;20.40;86.40;;;;;;5074814;28;20025;-62
2021/07/30 02:59:39;;;;;;;7.65;4.88;;;20.40;86.40;;;;;;5074639;28;20035;-62
2021/07/30 03:02:05;;;;;;;8.98;5.35;;;20.40;86.50;;;;;;5074678;28;20472;-62
2021/07/30 03:04:30;;;;;;;7.68;4.40;;;20.50;86.20;;;;;;5074532;28;20043;-62
2021/07/30 03:06:56;;;;;;;6.47;4.35;;;20.50;86.10;;;;;;5074434;28;20056;-61
2021/07/30 03:09:22;;;;;;;7.22;5.00;;;20.50;86.20;;;;;;5074631;28;20025;-62
2021/07/30 03:11:47;;;;;;;7.82;5.63;;;20.50;85.90;;;;;;5074353;28;20017;-62
2021/07/30 03:14:13;;;;;;;8.63;7.22;;;20.60;86.00;;;;;;5074440;28;20028;-61
2021/07/30 03:16:38;;;;;;;8.40;5.85;;;20.60;85.90;;;;;;5074722;28;20032;-61
2021/07/30 03:19:04;;;;;;;8.30;5.50;;;20.60;85.40;;;;;;5074386;28;20040;-61
2021/07/30 03:21:30;;;;;;;8.57;6.15;;;20.70;85.50;;;;;;5074573;28;20028;-62
2021/07/30 03:23:55;;;;;;;8.45;5.88;;;20.70;85.50;;;;;;5074501;28;20028;-62
2021/07/30 03:26:21;;;;;;;7.65;5.15;;;20.80;85.40;;;;;;5074046;28;20051;-62
2021/07/30 03:28:50;;;;;;;8.35;6.40;;;20.80;85.20;;;;;;5056200;28;20047;-61
2021/07/30 03:31:16;;;;;;;8.75;6.20;;;20.80;85.30;;;;;;5073831;28;20029;-61
2021/07/30 03:33:42;;;;;;;7.43;5.47;;;20.90;84.80;;;;;;5073131;28;20028;-63
2021/07/30 03:36:08;;;;;;;7.65;5.75;;;20.90;84.50;;;;;;5073977;28;20024;-62
2021/07/30 03:38:33;;;;;;;7.82;5.72;;;20.90;84.50;;;;;;5074370;28;20063;-62
2021/07/30 03:41:03;;;;;;;7.68;6.00;;;20.90;84.50;;;;;;5073896;28;20020;-62
2021/07/30 03:43:29;;;;;;;8.32;5.78;;;20.90;84.30;;;;;;5073865;28;20056;-62
2021/07/30 03:45:54;;;;;;;8.27;6.10;;;20.90;84.50;;;;;;5073919;28;20056;-62
2021/07/30 03:48:20;;;;;;;8.55;5.80;;;20.90;84.40;;;;;;5074012;28;20032;-63
2021/07/30 03:50:45;;;;;;;8.43;5.90;;;21.00;84.40;;;;;;5073851;28;20515;-62
2021/07/30 03:53:11;;;;;;;10.05;5.68;;;21.00;84.20;;;;;;5073599;28;20031;-62
2021/07/30 03:55:37;;;;;;;8.13;5.93;;;21.00;84.00;;;;;;5073767;28;20163;-61
2021/07/30 03:58:03;;;;;;;8.15;6.20;;;21.00;83.90;;;;;;5073624;28;20074;-62
2021/07/30 04:00:28;;;;;;;9.02;5.97;;;21.10;83.90;;;;;;5073687;28;20375;-62
2021/07/30 04:02:54;;;;;;;9.13;6.03;;;21.00;84.10;;;;;;5073477;28;20096;-62
2021/07/30 04:05:19;;;;;;;8.32;5.80;;;21.00;84.30;;;;;;5073686;28;20127;-62
2021/07/30 04:07:45;;;;;;;8.20;6.20;;;21.10;84.20;;;;;;5073456;28;20066;-63
2021/07/30 04:10:11;;;;;;;7.78;5.60;;;21.10;84.30;;;;;;5073414;28;20052;-62
2021/07/30 04:12:36;;;;;;;7.93;5.50;;;21.10;84.40;;;;;;5073688;28;20063;-62
2021/07/30 04:15:02;;;;;;;7.85;6.03;;;21.20;84.50;;;;;;5073615;28;20127;-63
2021/07/30 04:17:28;;;;;;;8.60;5.90;;;21.30;84.20;;;;;;5073203;28;20388;-62
2021/07/30 04:19:53;;;;;;;8.23;6.43;;;21.40;83.90;;;;;;5073244;28;20387;-63
2021/07/30 04:22:19;;;;;;;8.90;6.65;;;21.50;83.70;;;;;;5073173;28;20055;-63
2021/07/30 04:24:45;;;;;;;8.93;6.75;;;21.50;83.50;;;;;;5073222;28;20024;-63
2021/07/30 04:27:10;;;;;;;9.55;7.15;;;21.60;83.20;;;;;;5072909;28;20037;-62
2021/07/30 04:29:38;;;;;;;9.68;7.70;;;21.70;82.90;;;;;;5072994;28;20109;-62
2021/07/30 04:32:04;;;;;;;8.57;6.57;;;21.70;82.70;;;;;;5072758;28;20040;-62
2021/07/30 04:34:30;;;;;;;10.43;7.78;;;21.70;82.80;;;;;;5072843;28;20375;-62
2021/07/30 04:36:55;;;;;;;10.07;7.57;;;21.80;82.70;;;;;;5072817;28;20025;-63
2021/07/30 04:39:21;;;;;;;10.43;7.50;;;21.80;82.30;;;;;;5072731;28;20020;-62
2021/07/30 04:41:46;;;;;;;8.93;6.80;;;21.90;82.30;;;;;;5072822;28;20597;-63
2021/07/30 04:44:12;;;;;;;9.00;7.35;;;21.90;82.40;;;;;;5072830;28;20108;-63
2021/07/30 04:46:38;;;;;;;10.35;8.32;;;22.00;82.30;;;;;;5072407;28;20396;-62
2021/07/30 04:49:03;;;;;;;10.40;8.07;;;22.00;82.40;;;;;;5071781;28;20032;-62
2021/07/30 04:51:29;;;;;;;11.00;8.20;;;22.10;82.40;;;;;;5072295;28;20096;-62
2021/07/30 04:53:54;;;;;;;11.27;7.97;;;22.10;82.50;;;;;;5072858;28;20035;-62
2021/07/30 04:56:20;;;;;;;11.50;8.80;;;22.20;83.10;;;;;;5072627;28;20595;-63
2021/07/30 04:58:47;;;;;;;10.82;8.07;;;22.30;82.40;;;;;;5072624;28;20043;-62
2021/07/30 05:01:13;;;;;;;8.88;7.47;;;22.40;82.40;;;;;;5072396;28;20024;-64
2021/07/30 05:03:38;;;;;;;10.68;8.50;;;22.50;82.40;;;;;;5072021;28;20031;-61
2021/07/30 05:06:18;;;;;;;10.95;9.13;;;22.70;82.10;;;;;;5072260;28;20036;-62
2021/07/30 05:08:44;;;;;;;14.27;12.73;;;22.80;81.90;;;;;;5072289;28;20017;-63
2021/07/30 05:11:11;;;;;;;15.52;13.90;;;22.90;81.70;;;;;;5072251;28;20029;-63
2021/07/30 05:13:38;;;;;;;14.88;12.60;;;23.10;81.20;;;;;;5072170;28;20085;-64
2021/07/30 05:16:05;;;;;;;15.63;12.13;;;23.20;80.90;;;;;;5072040;28;20391;-64
2021/07/30 05:18:31;;;;;;;12.90;10.45;;;23.30;80.60;;;;;;5071273;28;20047;-63
2021/07/30 05:20:57;;;;;;;12.13;9.82;;;23.40;80.60;;;;;;5071898;28;20172;-62
2021/07/30 05:23:22;;;;;;;13.70;10.38;;;23.60;79.90;;;;;;5070964;28;20024;-62
2021/07/30 05:25:55;;;;;;;13.38;11.15;;;23.60;79.70;;;;;;5071780;28;20107;-63
2021/07/30 05:28:20;;;;;;;11.68;10.20;;;23.80;78.80;;;;;;5070984;28;20020;-62
2021/07/30 05:30:46;;;;;;;10.90;9.80;;;23.80;78.60;;;;;;5070948;28;20103;-62
2021/07/30 05:33:12;;;;;;;11.93;10.40;;;23.90;78.70;;;;;;5070692;28;20039;-62
2021/07/30 05:35:38;;;;;;;11.88;9.80;;;24.00;77.90;;;;;;5070916;28;20028;-62
2021/07/30 05:38:03;;;;;;;10.82;9.23;;;24.00;77.80;;;;;;5071682;28;20375;-63
2021/07/30 05:40:29;;;;;;;10.48;9.25;;;24.10;77.00;;;;;;5070951;28;20078;-63
2021/07/30 05:42:55;;;;;;;11.43;9.57;;;24.10;76.70;;;;;;5071448;28;20078;-63
2021/07/30 05:45:20;;;;;;;12.13;10.23;;;24.20;76.50;;;;;;5071669;28;20527;-63
2021/07/30 05:47:49;;;;;;;11.60;9.32;;;24.20;76.00;;;;;;5071975;28;20530;-62
2021/07/30 05:50:16;;;;;;;11.65;10.20;;;24.20;76.20;;;;;;5071662;28;20536;-64
2021/07/30 05:52:41;;;;;;;11.15;9.70;;;24.30;75.50;;;;;;5071015;28;20025;-63
2021/07/30 05:55:07;;;;;;;9.98;8.60;;;24.30;75.50;;;;;;5071400;28;20030;-63
2021/07/30 05:57:36;;;;;;;10.43;9.18;;;24.30;75.30;;;;;;5070231;28;20020;-61
2021/07/30 06:00:03;;;;;;;11.52;10.30;;;24.40;75.10;;;;;;5071590;28;20095;-62
2021/07/30 06:02:29;;;;;;;11.02;9.18;;;24.40;74.80;;;;;;5071860;28;20464;-64
2021/07/30 06:04:55;;;;;;;11.60;10.25;;;24.40;74.60;;;;;;5071176;28;20055;-64
2021/07/30 06:07:20;;;;;;;12.57;10.40;;;24.50;74.60;;;;;;5070494;28;20037;-63
2021/07/30 06:09:46;;;;;;;12.40;9.95;;;24.50;75.00;;;;;;5071414;28;20048;-63
2021/07/30 06:12:13;;;;;;;12.07;10.25;;;24.50;74.50;;;;;;5071085;28;20480;-63
2021/07/30 06:14:38;;;;;;;13.68;10.50;;;24.60;74.50;;;;;;5071248;28;20498;-62
2021/07/30 06:17:04;;;;;;;11.07;9.93;;;24.60;73.90;;;;;;5071074;28;20028;-64
2021/07/30 06:19:30;;;;;;;12.15;10.35;;;24.60;74.30;;;;;;5071303;28;20036;-62
2021/07/30 06:21:57;;;;;;;11.30;10.15;;;24.70;74.20;;;;;;5071100;28;20032;-63
2021/07/30 06:24:24;;;;;;;11.57;9.27;;;24.70;74.10;;;;;;5071160;28;20039;-63
2021/07/30 06:26:50;;;;;;;9.82;8.70;;;24.80;74.20;;;;;;5071491;28;20049;-63
2021/07/30 06:29:16;;;;;;;11.07;9.60;;;24.90;74.20;;;;;;5071285;28;20404;-63
2021/07/30 06:31:42;;;;;;;10.38;8.75;;;25.10;73.20;;;;;;5070865;28;20032;-62
2021/07/30 06:34:08;;;;;;;10.98;9.80;;;25.20;73.00;;;;;;5069989;28;20456;-63
2021/07/30 06:36:34;;;;;;;9.65;8.65;;;25.40;71.30;;;;;;5070654;28;20040;-64
2021/07/30 06:38:59;;;;;;;9.32;8.32;;;25.50;70.20;;;;;;5053129;28;20024;-63
2021/07/30 06:41:25;;;;;;;10.32;8.57;;;25.60;69.90;;;;;;5071168;28;20426;-62
2021/07/30 06:43:53;;;;;;;9.55;8.18;;;25.70;68.70;;;;;;5070337;28;20047;-64
2021/07/30 06:46:19;;;;;;;9.93;8.43;;;25.80;68.40;;;;;;5070807;28;20120;-63
2021/07/30 06:48:44;;;;;;;9.60;8.60;;;25.90;68.00;;;;;;5070983;28;20388;-63
2021/07/30 06:51:11;;;;;;;9.55;8.55;;;25.90;67.90;;;;;;5070942;28;20052;-63
2021/07/30 06:53:37;;;;;;;9.13;7.97;;;26.00;67.20;;;;;;5052128;28;20604;-63
2021/07/30 06:56:13;;;;;;;10.23;8.07;;;26.00;66.70;;;;;;5071815;28;20132;-63
2021/07/30 06:58:39;;;;;;;9.60;8.32;;;26.00;66.70;;;;;;5052238;28;20020;-62
2021/07/30 07:01:05;;;;;;;9.48;8.43;;;26.10;67.00;;;;;;5070880;28;20487;-62
2021/07/30 07:03:31;;;;;;;10.60;9.50;;;26.20;66.70;;;;;;5070396;28;20040;-64
2021/07/30 07:05:57;;;;;;;9.25;8.25;;;26.20;65.50;;;;;;5069187;28;20037;-64
2021/07/30 07:08:23;;;;;;;10.88;8.27;;;26.20;65.70;;;;;;5053507;28;20035;-62
2021/07/30 07:10:49;;;;;;;10.88;8.85;;;26.20;65.50;;;;;;5074504;28;20032;-62
2021/07/30 07:13:20;;;;;;;9.30;7.88;;;26.20;65.60;;;;;;5073857;28;20023;-63
2021/07/30 07:15:46;;;;;;;9.52;8.18;;;26.30;65.90;;;;;;5074343;28;20356;-62
2021/07/30 07:18:12;;;;;;;9.55;8.18;;;26.30;65.60;;;;;;5073764;28;20036;-63
2021/07/30 07:20:39;;;;;;;8.90;7.63;;;26.40;66.00;;;;;;5074273;28;20021;-63
2021/07/30 07:23:05;;;;;;;9.43;7.65;;;26.50;65.10;;;;;;5074021;28;20025;-62
2021/07/30 07:25:30;;;;;;;9.63;8.27;;;26.50;65.00;;;;;;5073656;28;20024;-62
2021/07/30 07:27:56;;;;;;;8.90;8.00;;;26.60;64.40;;;;;;5073335;28;20028;-63
2021/07/30 07:30:22;;;;;;;10.02;7.88;;;26.60;64.10;;;;;;5074003;28;20024;-62
2021/07/30 07:32:48;;;;;;;8.70;7.43;;;26.70;63.50;;;;;;5074173;28;20029;-64
2021/07/30 07:35:14;;;;;;;9.02;8.13;;;26.80;63.90;;;;;;5073616;28;20056;-63
2021/07/30 07:37:39;;;;;;;8.07;7.25;;;26.80;63.20;;;;;;5055537;28;20029;-63
2021/07/30 07:40:07;;;;;;;8.55;7.47;;;26.90;63.10;;;;;;5055531;28;20040;-65
2021/07/30 07:42:32;;;;;;;8.05;7.15;;;27.00;62.60;;;;;;5073272;28;20064;-64
2021/07/30 07:44:59;;;;;;;8.75;7.80;;;27.00;62.60;;;;;;5072924;28;20052;-64
2021/07/30 07:47:25;;;;;;;8.07;7.03;;;27.10;61.80;;;;;;5054870;28;20033;-64
2021/07/30 07:49:50;;;;;;;8.02;7.13;;;27.20;61.90;;;;;;5072650;28;20023;-64
2021/07/30 07:52:16;;;;;;;8.07;6.85;;;27.20;61.70;;;;;;5072454;28;20024;-66
2021/07/30 07:54:42;;;;;;;8.35;7.45;;;27.30;61.90;;;;;;5073147;28;20035;-63
2021/07/30 07:57:07;;;;;;;8.23;7.20;;;27.50;62.00;;;;;;5073357;28;20020;-65
2021/07/30 07:59:37;;;;;;;8.32;7.22;;;27.60;61.50;;;;;;5072398;28;20030;-64
2021/07/30 08:02:06;;;;;;;7.80;7.00;;;27.70;60.80;;;;;;5073112;28;20059;-65
2021/07/30 08:04:33;;;;;;;7.63;6.57;;;27.90;61.20;;;;;;5072637;28;20054;-64
2021/07/30 08:07:03;;;;;;;7.40;6.25;;;28.10;60.90;;;;;;5072361;28;20028;-63
2021/07/30 08:09:29;;;;;;;7.80;6.38;;;28.30;61.10;;;;;;5072422;28;20362;-62
2021/07/30 08:11:56;;;;;;;8.13;6.68;;;28.50;60.50;;;;;;5072962;28;20021;-64
2021/07/30 08:14:22;;;;;;;8.18;6.55;;;28.80;60.10;;;;;;5072938;28;20365;-65
2021/07/30 08:16:48;;;;;;;8.25;7.00;;;29.00;59.90;;;;;;5073467;28;20025;-63
2021/07/30 08:19:14;;;;;;;7.15;6.22;;;29.30;59.50;;;;;;5073130;28;20039;-63
2021/07/30 08:21:39;;;;;;;9.63;6.90;;;29.50;59.00;;;;;;5054509;28;20033;-63
2021/07/30 08:24:05;;;;;;;8.05;6.30;;;29.70;56.70;;;;;;5071750;28;20066;-63
2021/07/30 08:26:31;;;;;;;7.22;5.88;;;29.90;53.90;;;;;;5072469;28;20020;-65
2021/07/30 08:28:56;;;;;;;6.82;5.95;;;29.80;55.00;;;;;;5072102;28;20526;-66
2021/07/30 08:31:23;;;;;;;7.00;5.90;;;29.90;55.10;;;;;;5072542;28;20024;-64
2021/07/30 08:33:49;;;;;;;8.68;6.47;;;30.20;54.90;;;;;;5072947;28;20082;-63
2021/07/30 08:36:15;;;;;;;7.30;5.90;;;30.40;54.30;;;;;;5072907;28;20056;-62
2021/07/30 08:38:40;;;;;;;7.03;6.07;;;30.50;54.40;;;;;;5071682;28;20095;-63
2021/07/30 08:41:07;;;;;;;7.50;6.22;;;30.80;54.20;;;;;;5071729;28;20025;-63
2021/07/30 08:43:33;;;;;;;7.45;5.75;;;31.10;53.30;;;;;;5072526;28;20472;-63
2021/07/30 08:45:59;;;;;;;7.43;6.28;;;31.30;53.20;;;;;;5072618;28;20103;-62
2021/07/30 08:48:25;;;;;;;6.85;5.85;;;31.50;52.70;;;;;;5072102;28;20384;-63
2021/07/30 08:50:51;;;;;;;7.10;6.30;;;31.60;52.50;;;;;;5071848;28;20020;-63
2021/07/30 08:53:23;;;;;;;7.07;6.38;;;31.90;51.90;;;;;;5054645;28;20025;-67
2021/07/30 08:55:49;;;;;;;7.75;6.20;;;32.10;51.20;;;;;;5072358;28;20380;-65
2021/07/30 08:58:14;;;;;;;7.78;5.88;;;32.30;51.20;;;;;;5072561;28;20024;-62
2021/07/30 09:00:40;;;;;;;6.60;5.32;;;32.50;50.70;;;;;;5072411;28;20379;-63
2021/07/30 09:03:06;;;;;;;6.72;5.78;;;32.70;50.80;;;;;;5071569;28;20385;-63
2021/07/30 09:05:33;;;;;;;6.25;5.22;;;33.00;50.60;;;;;;5070635;28;20491;-63
2021/07/30 09:08:05;;;;;;;6.40;5.40;;;33.20;50.10;;;;;;5072062;28;20472;-63
2021/07/30 09:10:30;;;;;;;8.10;5.55;;;33.50;49.60;;;;;;5070736;28;20380;-63
2021/07/30 09:13:18;;;;;;;7.03;5.63;;;33.70;49.60;;;;;;5071538;28;20020;-64
2021/07/30 09:15:49;;;;;;;7.80;6.00;;;34.00;49.40;;;;;;5071518;28;20075;-63
2021/07/30 09:18:25;;;;;;;6.72;5.90;;;34.30;48.90;;;;;;5071309;28;20095;-62
2021/07/30 09:20:51;;;;;;;8.35;6.65;;;34.60;47.70;;;;;;5070272;28;20524;-64
2021/07/30 09:23:18;;;;;;;8.52;7.00;;;34.60;48.00;;;;;;5070028;28;20029;-63
2021/07/30 09:25:44;;;;;;;7.22;5.82;;;34.80;48.30;;;;;;5071077;28;20017;-63
2021/07/30 09:28:10;;;;;;;7.20;5.45;;;35.00;48.60;;;;;;5070734;28;20031;-63
2021/07/30 09:30:35;;;;;;;6.15;5.18;;;35.40;48.30;;;;;;5070072;28;20017;-63
2021/07/30 09:33:02;;;;;;;6.35;5.20;;;35.70;47.70;;;;;;5069666;28;20047;-64
2021/07/30 09:35:27;;;;;;;6.72;5.22;;;36.00;47.40;;;;;;5070898;28;20044;-63
2021/07/30 09:38:16;;;;;;;7.07;5.70;;;36.30;47.00;;;;;;5070354;28;20016;-64
2021/07/30 09:40:41;;;;;;;6.88;6.18;;;36.60;45.50;;;;;;5070329;28;20058;-64
2021/07/30 09:43:23;;;;;;;10.40;6.00;;;36.70;45.20;;;;;;5069988;28;20028;-63
2021/07/30 09:45:51;;;;;;;6.90;5.93;;;36.80;44.70;;;;;;5069871;28;20026;-63
2021/07/30 09:48:19;;;;;;;8.32;7.00;;;36.80;45.10;;;;;;5070720;28;20077;-63
2021/07/30 09:50:46;;;;;;;7.35;6.10;;;37.00;44.30;;;;;;5070180;28;20027;-64
2021/07/30 09:53:14;;;;;;;7.03;5.30;;;36.90;44.20;;;;;;5070084;28;20035;-63
2021/07/30 09:55:41;;;;;;;7.60;5.80;;;36.90;44.60;;;;;;5070538;28;20024;-64
2021/07/30 09:58:08;;;;;;;7.57;6.25;;;36.90;44.00;;;;;;5070609;28;20097;-63
2021/07/30 10:00:36;;;;;;;7.97;6.20;;;37.00;43.20;;;;;;5070816;28;20016;-65
2021/07/30 10:03:03;;;;;;;7.00;5.80;;;36.50;43.60;;;;;;5070411;28;20020;-63
2021/07/30 10:05:31;;;;;;;6.68;5.72;;;36.50;44.10;;;;;;5026576;28;1252369;-64
2021/07/30 10:07:58;;;;;;;6.43;5.40;;;36.70;43.70;;;;;;5071256;28;20112;-63
2021/07/30 10:10:29;;;;;;;7.00;6.03;;;36.60;43.30;;;;;;5070745;28;20032;-62
2021/07/30 10:12:57;;;;;;;6.95;5.22;;;36.70;43.50;;;;;;5071253;28;20071;-64
2021/07/30 10:15:23;;;;;;;6.13;5.10;;;36.90;43.20;;;;;;5071087;28;20025;-64
2021/07/30 10:17:52;;;;;;;7.35;5.13;;;37.00;42.80;;;;;;5070490;28;20028;-64
2021/07/30 10:20:23;;;;;;;6.20;5.10;;;37.30;42.50;;;;;;5071244;28;20116;-64
2021/07/30 10:23:06;;;;;;;;;;;37.50;42.80;;;;;;5071463;28;20034;-62
2021/07/30 10:26:01;;;;;;;6.10;5.10;;;37.60;42.10;;;;;;5070483;28;19908;-63
2021/07/30 10:28:29;;;;;;;6.35;4.53;;;37.80;40.90;;;;;;5070237;28;20084;-63
2021/07/30 10:30:58;;;;;;;5.82;4.75;;;38.00;41.40;;;;;;5071167;28;20032;-63
2021/07/30 10:33:33;;;;;;;6.50;4.50;;;38.20;40.90;;;;;;5071911;28;20876;-63
2021/07/30 10:36:06;;;;;;;6.47;5.05;;;38.30;40.40;;;;;;5071141;28;20179;-64
2021/07/30 10:38:32;;;;;;;6.10;4.60;;;38.50;40.10;;;;;;5071119;28;20393;-64
2021/07/30 10:40:58;;;;;;;7.80;5.45;;;38.50;40.90;;;;;;5070204;28;20036;-64
2021/07/30 10:43:28;;;;;;;6.20;5.10;;;38.80;40.90;;;;;;5071157;28;20096;-64
2021/07/30 10:46:08;;;;;;;5.80;5.07;;;39.00;40.50;;;;;;5074882;28;20028;-65
2021/07/30 10:48:39;;;;;;;6.20;4.93;;;39.00;40.00;;;;;;5074927;28;20019;-64
2021/07/30 10:53:47;;;;;;;6.20;4.70;;;39.10;39.80;;;;;;5075124;28;20060;-65
2021/07/30 10:56:18;;;;;;;5.70;4.78;;;39.20;40.60;;;;;;5074955;28;20428;-64
2021/07/30 10:58:44;;;;;;;6.35;4.43;;;39.50;40.00;;;;;;5073732;28;20372;-64
2021/07/30 11:01:19;;;;;;;7.40;5.15;;;39.60;39.70;;;;;;5074691;28;20033;-65
2021/07/30 11:03:53;;;;;;;5.38;4.53;;;39.80;38.70;;;;;;5074556;28;20442;-64
2021/07/30 11:06:26;;;;;;;5.60;4.70;;;39.40;39.00;;;;;;5074005;28;20514;-63
2021/07/30 11:09:04;;;;;;;7.18;5.30;;;39.20;39.60;;;;;;5074553;28;20506;-64
2021/07/30 11:11:45;;;;;;;5.68;4.78;;;39.30;39.80;;;;;;5074273;28;20512;-63
2021/07/30 11:14:14;;;;;;;6.20;4.47;;;39.50;40.20;;;;;;5073714;28;20032;-64
2021/07/30 11:16:41;;;;;;;7.00;5.30;;;39.80;40.00;;;;;;5074919;28;20383;-64
2021/07/30 11:19:07;;;;;;;6.22;5.05;;;40.10;39.00;;;;;;5074184;28;20032;-64
2021/07/30 11:21:33;;;;;;;6.60;5.03;;;39.90;39.00;;;;;;5073804;28;20024;-65
2021/07/30 11:24:01;;;;;;;6.43;5.40;;;39.70;39.10;;;;;;5074463;28;20035;-65
2021/07/30 11:26:29;;;;;;;6.07;5.15;;;39.20;39.00;;;;;;5073439;28;20600;-65
2021/07/30 11:29:00;;;;;;;6.50;5.10;;;38.80;39.80;;;;;;5074408;28;20086;-65
2021/07/30 11:31:26;;;;;;;5.90;4.82;;;38.90;39.90;;;;;;5073251;28;20032;-64
2021/07/30 11:33:53;;;;;;;6.53;4.75;;;39.30;39.70;;;;;;5074440;28;20029;-64
2021/07/30 11:36:19;;;;;;;5.75;5.00;;;39.70;39.00;;;;;;5073750;28;20032;-64
2021/07/30 11:38:48;;;;;;;6.20;5.05;;;40.00;39.20;;;;;;5073186;28;20029;-65
2021/07/30 11:41:14;;;;;;;5.50;4.60;;;40.20;38.60;;;;;;5073852;28;20488;-64
2021/07/30 11:44:00;;;;;;;6.45;5.18;;;40.50;38.80;;;;;;5074218;28;20029;-63
2021/07/30 11:46:27;;;;;;;6.28;4.65;;;41.00;38.00;;;;;;5073845;28;20502;-64
2021/07/30 11:48:53;;;;;;;5.10;4.20;;;41.30;37.80;;;;;;5073608;28;20031;-64
2021/07/30 11:51:21;;;;;;;5.85;4.47;;;41.60;38.00;;;;;;5074138;28;20495;-63
2021/07/30 11:53:51;;;;;;;5.40;4.20;;;41.80;37.50;;;;;;5073915;28;20032;-64
2021/07/30 11:56:17;;;;;;;5.63;4.43;;;42.10;37.00;;;;;;5072864;28;20032;-64
2021/07/30 11:59:02;;;;;;;5.30;4.30;;;42.10;36.40;;;;;;5073732;28;20029;-64
2021/07/30 12:01:30;;;;;;;6.03;4.13;;;41.60;36.30;;;;;;5073526;28;20541;-63
2021/07/30 12:04:13;;;;;;;5.28;4.20;;;41.20;36.90;;;;;;5073620;28;20040;-65
2021/07/30 12:06:42;;;;;;;4.82;3.60;;;41.30;37.10;;;;;;5072715;28;20024;-63
2021/07/30 12:09:11;;;;;;;6.05;4.20;;;41.50;36.90;;;;;;5073400;28;20024;-63
2021/07/30 12:11:41;;;;;;;5.72;4.45;;;41.80;36.10;;;;;;5073196;28;20028;-64
2021/07/30 12:14:08;;;;;;;5.05;4.00;;;41.90;35.50;;;;;;5073504;28;20035;-63
2021/07/30 12:16:34;;;;;;;5.35;3.90;;;41.80;35.80;;;;;;5073215;28;20056;-64
2021/07/30 12:19:00;;;;;;;6.78;4.15;;;41.90;36.20;;;;;;5073328;28;20491;-64
2021/07/30 12:21:26;;;;;;;5.40;3.88;;;42.30;35.80;;;;;;5073379;28;20541;-65
2021/07/30 12:23:51;;;;;;;4.90;3.70;;;42.60;35.60;;;;;;5073241;28;20021;-65
2021/07/30 12:26:30;;;;;;;5.63;3.90;;;42.90;35.00;;;;;;5054303;28;20032;-64
2021/07/30 12:28:56;;;;;;;4.60;3.67;;;43.00;34.50;;;;;;5073196;28;20025;-63
2021/07/30 12:31:22;;;;;;;6.22;3.67;;;43.00;34.60;;;;;;5073446;28;20029;-63
2021/07/30 12:33:47;;;;;;;4.80;3.45;;;43.20;34.70;;;;;;5073330;28;20039;-63
2021/07/30 12:36:15;;;;;;;4.80;3.30;;;43.30;34.50;;;;;;5072788;28;20025;-64
2021/07/30 12:39:01;;;;;;;5.28;4.07;;;43.30;34.50;;;;;;5073064;28;20093;-64
2021/07/30 12:41:30;;;;;;;5.10;3.70;;;43.40;33.70;;;;;;5072781;28;20024;-64
2021/07/30 12:44:16;;;;;;;5.13;3.53;;;43.40;34.10;;;;;;5055143;28;20025;-64
2021/07/30 12:46:43;;;;;;;5.22;3.90;;;43.40;34.00;;;;;;5071799;28;20052;-63
2021/07/30 12:49:11;;;;;;;4.95;3.45;;;43.50;32.90;;;;;;5072723;28;20410;-63
2021/07/30 12:51:38;;;;;;;4.50;3.20;;;43.10;33.40;;;;;;5072868;28;20082;-63